Pagrindinis puslapis
METAR-TAF:

METAR-TAF

Oro uostai :

Bogota, Kolumbija

platuma: 04-43N, ilguma: 074-09W, Aukštis: 2547 m

Dabartinis oras

Ataskaita buvo paskelbta 1 valandą ir 1 minutes, ne 11:00 UTC
Vėjas 3 kt iš Šiaurės/Šiaurės Rytų
Temperatūra 5°C
Drėgmė 100%
Slėgis 1029 hPa
Matomumas 10 km arba daugiau
Sekli rūkas

METAR: SKBO 221100Z 02003KT 9999 MIFG NSC 05/05 A3038 NOSIG

Laikas: 07:01 (12:01 UTC)

Prognozė

Ataskaita buvo paskelbta 1 valandą ir 31 minutes, ne 10:30 UTC
Prognozė galioja nuo 22 metu 12 UTC su 23 metu 12 UTC
Vėjas 2 kt nuo kintamojo kryptimis
Matomumas 10 km arba daugiau
Mažai debesys ne aukštis 1500 ft
Tapsmas
nuo 22 metu 14 UTC su 22 metu 16 UTC
Vėjas 14 kt iš Pietryčių
Tikimybė 40% :
Laikinai
nuo 22 metu 19 UTC su 22 metu 22 UTC
Su prošvaistėmis ne aukštis 1700 ft
dulksna
Tapsmas
nuo 23 metu 00 UTC su 23 metu 02 UTC
Vėjas 2 kt nuo kintamojo kryptimis

TAF: SKBO 221030Z 2212/2312 VRB02KT 9999 FEW015 BECMG 2214/2216 14014KT PROB40 TEMPO 2219/2222 DZ BKN017 BECMG 2300/2302 VRB02KT TX21/2218Z TN05/2310Z

Orai ataskaitas ir orų prognozės (METAR, TAF).

turimą stotys yra geltonos ir raudonos taškus žemėlapyje.

Perkelti pele per norėdami pamatyti stoties vardą.

Tada spustelėkite, norėdami matyti oro stebėjimo ir prognozės.

Norėdami pakeisti žemėlapį: spustelėkite ant žalios mygtukų su juodo kryžiaus žemyn,; žalią mygtuką su brūkšneliu, jei norite nutolinti; arba žalių rodyklių gretimoms žemėlapius.


METAR-TAF: